Augsburg, Illinois
Current Conditions -  °F | °C
As of 12:15 PM on Monday 22 Dec 2014 (Local Time) from KSLO Reporting Station
Light Rain Light Rain  
Wind Chill:   Ceiling: 400
Heat Index:   Visibility: 3mi
Dew Point:   Wind: 12mph
Humidity: 92%   Direction: 130°SE
Pressure: 29.7"   Gusts: 18mph
Location:  38.8463°N, 89.0894°W
Report Text: KSLO 221815Z AUTO 13010G16KT 3SM -RA OVC004 08/07 A2970 RMK AO2 T00780066
Loading
Personal Weather Stations






























Interactive Weather Map New forecast layout! Learn more

10-Day Weather Forecast

Advertisements
Track Severe Weather on mobile